Time;durP1;ratioP1;P1;durP2;ratioP2;P2;SDS_P1;SDS_P2;PMS_P1;PMS_P2;Temp;Humidity;BMP_temperature;BMP_pressure;BME280_temperature;BME280_humidity;BME280_pressure;Samples;Min_cycle;Max_cycle;Signal;HPM_P1;HPM_P2
2022/01/12 00:00:57;;;;;;;72.60;33.65;;;-0.70;99.90;;;;;;2113328;28;20564;-70
2022/01/12 00:01:59;;;;;;;66.80;31.40;;;-0.70;99.90;;;;;;2113335;28;20023;-70
2022/01/12 00:03:00;;;;;;;65.88;30.52;;;-0.70;99.90;;;;;;2113890;28;20376;-70
2022/01/12 00:04:01;;;;;;;63.25;30.10;;;-0.60;99.90;;;;;;2113605;28;20025;-71
2022/01/12 00:05:02;;;;;;;61.97;30.38;;;-0.60;99.90;;;;;;2113456;28;20031;-71
2022/01/12 00:06:04;;;;;;;61.55;29.65;;;-0.60;99.90;;;;;;2104525;28;20089;-70
2022/01/12 00:07:05;;;;;;;59.67;29.27;;;-0.60;99.90;;;;;;2105315;27;20032;-73
2022/01/12 00:08:08;;;;;;;63.20;29.88;;;-0.60;99.90;;;;;;2106682;28;20024;-71
2022/01/12 00:09:08;;;;;;;61.45;29.40;;;-0.60;99.90;;;;;;2112460;28;20034;-72
2022/01/12 00:10:09;;;;;;;58.25;28.80;;;-0.60;99.90;;;;;;2114162;28;20035;-73
2022/01/12 00:11:10;;;;;;;57.55;28.35;;;-0.60;99.90;;;;;;2106674;28;20035;-72
2022/01/12 00:12:11;;;;;;;59.72;28.27;;;-0.50;99.90;;;;;;2113390;28;20439;-74
2022/01/12 00:13:11;;;;;;;58.35;27.63;;;-0.50;99.90;;;;;;2106550;28;20054;-72
2022/01/12 00:14:12;;;;;;;56.00;28.35;;;-0.50;99.90;;;;;;2113502;28;20077;-72
2022/01/12 00:15:14;;;;;;;55.22;27.77;;;-0.50;99.90;;;;;;2107495;28;20020;-72
2022/01/12 00:16:16;;;;;;;58.45;29.02;;;-0.40;99.90;;;;;;2114039;28;20024;-72
2022/01/12 00:17:17;;;;;;;54.60;27.73;;;-0.40;99.90;;;;;;2107748;28;20101;-72
2022/01/12 00:18:18;;;;;;;57.45;28.17;;;-0.40;99.90;;;;;;2112897;28;20057;-72
2022/01/12 00:19:22;;;;;;;54.85;26.75;;;-0.40;99.90;;;;;;2098466;28;20040;-74
2022/01/12 00:20:23;;;;;;;54.90;26.75;;;-0.40;99.90;;;;;;2112304;28;20032;-72
2022/01/12 00:21:24;;;;;;;53.10;27.13;;;-0.40;99.90;;;;;;2108801;28;20016;-74
2022/01/12 00:22:26;;;;;;;51.10;26.55;;;-0.50;99.90;;;;;;2112920;28;20110;-72
2022/01/12 00:23:27;;;;;;;52.17;25.58;;;-0.50;99.90;;;;;;2109121;28;20042;-72
2022/01/12 00:24:40;;;;;;;52.08;26.23;;;-0.50;99.90;;;;;;2114258;28;20024;-72
2022/01/12 00:25:57;;;;;;;55.53;26.40;;;-0.50;99.90;;;;;;2114365;28;20608;-72
2022/01/12 00:33:37;;;;;;;54.75;26.27;;;-0.70;99.90;;;;;;2104266;28;20095;-72
2022/01/12 00:34:38;;;;;;;54.47;27.40;;;-0.70;99.90;;;;;;2102208;28;20108;-74
2022/01/12 00:35:50;;;;;;;56.72;28.00;;;-0.80;99.90;;;;;;2110612;28;20051;-73
2022/01/12 00:36:52;;;;;;;55.83;25.98;;;-0.80;99.90;;;;;;2109652;28;20025;-73
2022/01/12 00:37:53;;;;;;;53.78;26.98;;;-0.80;99.90;;;;;;2112672;28;20047;-74
2022/01/12 00:38:53;;;;;;;52.58;25.50;;;-0.90;99.90;;;;;;2108287;28;20051;-74
2022/01/12 00:39:58;;;;;;;51.53;25.83;;;-0.80;99.90;;;;;;2121355;27;20027;-73
2022/01/12 00:40:59;;;;;;;50.47;25.05;;;-0.90;99.90;;;;;;2099923;28;20610;-73
2022/01/12 00:42:00;;;;;;;50.53;26.15;;;-0.90;99.90;;;;;;2105325;28;20035;-73
2022/01/12 00:43:02;;;;;;;50.88;25.35;;;-0.90;99.90;;;;;;2108237;28;20039;-73
2022/01/12 00:44:07;;;;;;;47.95;24.45;;;-0.90;99.90;;;;;;2105768;28;20036;-72
2022/01/12 00:45:09;;;;;;;50.10;24.73;;;-1.00;99.90;;;;;;2107462;28;20106;-74
2022/01/12 00:46:09;;;;;;;53.72;26.27;;;-1.00;99.90;;;;;;2114471;28;20035;-73
2022/01/12 00:47:10;;;;;;;52.38;25.77;;;-1.00;99.90;;;;;;2098879;28;20143;-73
2022/01/12 00:48:15;;;;;;;51.83;25.85;;;-1.00;99.90;;;;;;2106020;28;20564;-74
2022/01/12 00:49:16;;;;;;;51.38;25.27;;;-1.00;99.90;;;;;;2107642;28;20506;-73
2022/01/12 00:50:17;;;;;;;51.90;25.15;;;-1.00;99.90;;;;;;2105580;28;20036;-73
2022/01/12 00:51:18;;;;;;;50.47;25.40;;;-1.00;99.90;;;;;;2100114;28;20028;-73
2022/01/12 00:52:21;;;;;;;52.47;26.25;;;-1.10;99.90;;;;;;2113697;28;20101;-73
2022/01/12 00:53:21;;;;;;;53.42;26.27;;;-1.10;99.90;;;;;;2108873;28;20126;-73
2022/01/12 00:54:22;;;;;;;49.35;25.08;;;-1.10;99.90;;;;;;2105293;28;20024;-72
2022/01/12 00:55:26;;;;;;;56.22;25.92;;;-1.10;99.90;;;;;;2093662;28;20560;-73
2022/01/12 00:56:27;;;;;;;52.67;25.70;;;-1.10;99.90;;;;;;2104785;28;20020;-72
2022/01/12 00:57:28;;;;;;;49.78;24.17;;;-1.10;99.90;;;;;;2110407;28;20015;-73
2022/01/12 00:58:30;;;;;;;51.70;25.65;;;-1.10;99.90;;;;;;2112513;28;20016;-72
2022/01/12 00:59:30;;;;;;;50.20;24.77;;;-1.10;99.90;;;;;;2109790;28;20444;-73
2022/01/12 01:00:31;;;;;;;52.58;25.67;;;-1.10;99.90;;;;;;2113098;28;20027;-72
2022/01/12 01:01:33;;;;;;;49.40;24.85;;;-1.10;99.90;;;;;;2111316;28;20023;-72
2022/01/12 01:02:35;;;;;;;49.67;24.42;;;-1.10;99.90;;;;;;2112026;28;20099;-73
2022/01/12 01:03:36;;;;;;;49.53;25.20;;;-1.10;99.90;;;;;;2102970;28;20039;-74
2022/01/12 01:04:36;;;;;;;48.08;24.52;;;-1.10;99.90;;;;;;2103416;28;20088;-73
2022/01/12 01:05:39;;;;;;;52.10;25.65;;;-1.10;99.90;;;;;;2102887;28;20121;-73
2022/01/12 01:06:41;;;;;;;48.83;24.67;;;-1.00;99.90;;;;;;2108817;28;20092;-75
2022/01/12 01:07:42;;;;;;;50.50;24.75;;;-1.00;99.90;;;;;;2103949;28;20024;-72
2022/01/12 01:08:44;;;;;;;50.90;24.63;;;-1.00;99.90;;;;;;2102791;28;20483;-72
2022/01/12 01:09:55;;;;;;;48.80;24.58;;;-1.00;99.90;;;;;;2114737;28;20038;-73
2022/01/12 01:10:56;;;;;;;51.28;24.77;;;-1.00;99.90;;;;;;2111901;28;20024;-73
2022/01/12 01:11:58;;;;;;;50.28;25.25;;;-0.90;99.90;;;;;;2118269;27;20544;-72
2022/01/12 01:13:00;;;;;;;53.03;24.75;;;-0.90;99.90;;;;;;2113383;28;20030;-73
2022/01/12 01:14:12;;;;;;;56.15;26.35;;;-0.90;99.90;;;;;;2119880;28;20047;-72
2022/01/12 01:15:17;;;;;;;53.55;25.73;;;-0.90;99.90;;;;;;2112599;28;20027;-72
2022/01/12 01:16:25;;;;;;;52.13;25.20;;;-0.90;99.90;;;;;;2120700;28;20022;-71
2022/01/12 01:25:33;;;;;;;53.25;24.95;;;-1.00;99.90;;;;;;2112406;28;20024;-73
2022/01/12 01:26:34;;;;;;;49.13;23.85;;;-0.90;99.90;;;;;;2114734;28;20020;-74
2022/01/12 01:27:35;;;;;;;49.65;24.05;;;-1.00;99.90;;;;;;2113087;28;20023;-72
2022/01/12 01:28:36;;;;;;;49.08;23.67;;;-0.90;99.90;;;;;;2104666;28;20029;-72
2022/01/12 01:29:37;;;;;;;48.78;23.90;;;-0.90;99.90;;;;;;2095911;28;20031;-73
2022/01/12 01:30:40;;;;;;;52.25;23.92;;;-0.90;99.90;;;;;;2107806;28;20016;-73
2022/01/12 01:31:44;;;;;;;50.40;24.83;;;-0.90;99.90;;;;;;2117299;27;20031;-72
2022/01/12 01:32:46;;;;;;;48.05;24.50;;;-0.90;99.90;;;;;;2120328;27;20759;-72
2022/01/12 01:33:47;;;;;;;47.58;23.65;;;-0.90;99.90;;;;;;2113867;28;20057;-73
2022/01/12 01:34:49;;;;;;;49.83;23.90;;;-0.90;99.90;;;;;;2111510;28;20070;-73
2022/01/12 01:35:56;;;;;;;47.72;24.05;;;-0.90;99.90;;;;;;2115395;28;20020;-72
2022/01/12 01:36:59;;;;;;;47.38;23.27;;;-0.90;99.90;;;;;;2109198;28;20069;-72
2022/01/12 01:38:02;;;;;;;51.97;24.77;;;-0.80;99.90;;;;;;2107577;28;20024;-73
2022/01/12 01:39:07;;;;;;;49.75;24.20;;;-0.80;99.90;;;;;;2090449;28;20031;-72
2022/01/12 01:40:09;;;;;;;49.22;23.92;;;-0.80;99.90;;;;;;2107763;28;20036;-73
2022/01/12 01:41:10;;;;;;;49.50;24.15;;;-0.80;99.90;;;;;;2108711;28;20031;-72
2022/01/12 01:42:18;;;;;;;50.15;24.25;;;-0.80;99.90;;;;;;2115294;28;20035;-71
2022/01/12 01:43:41;;;;;;;47.67;23.17;;;-0.80;99.90;;;;;;2100625;28;20032;-71
2022/01/12 01:53:47;;;;;;;50.33;23.23;;;-0.60;99.90;;;;;;2107115;28;20069;-70
2022/01/12 01:54:49;;;;;;;51.58;23.27;;;-0.60;99.90;;;;;;2101541;28;20086;-71
2022/01/12 01:55:51;;;;;;;46.03;23.38;;;-0.60;99.90;;;;;;2112967;28;20024;-70
2022/01/12 01:56:51;;;;;;;47.50;23.40;;;-0.60;99.90;;;;;;2100859;28;20032;-70
2022/01/12 01:57:53;;;;;;;47.85;23.15;;;-0.60;99.90;;;;;;2105290;28;20024;-71
2022/01/12 01:58:55;;;;;;;46.35;23.02;;;-0.60;99.90;;;;;;2118198;27;20084;-70
2022/01/12 01:59:58;;;;;;;46.65;23.50;;;-0.60;99.90;;;;;;2114241;28;20065;-72
2022/01/12 02:00:59;;;;;;;42.80;22.17;;;-0.50;99.90;;;;;;2100316;28;20111;-70
2022/01/12 02:02:06;;;;;;;50.03;23.33;;;-0.50;99.90;;;;;;2106706;28;20530;-70
2022/01/12 02:03:08;;;;;;;46.72;23.23;;;-0.50;99.90;;;;;;2106117;28;20106;-69
2022/01/12 02:04:15;;;;;;;45.40;22.35;;;-0.50;99.90;;;;;;2114688;28;20019;-70
2022/01/12 02:05:16;;;;;;;44.20;22.20;;;-0.50;99.90;;;;;;2107601;28;20040;-70
2022/01/12 02:06:17;;;;;;;47.53;22.60;;;-0.60;99.90;;;;;;2105488;28;20035;-72
2022/01/12 02:07:19;;;;;;;46.75;22.27;;;-0.50;99.90;;;;;;2108256;27;20028;-71
2022/01/12 02:08:24;;;;;;;41.83;21.67;;;-0.50;99.90;;;;;;2112921;28;20016;-72
2022/01/12 02:09:47;;;;;;;44.35;22.05;;;-0.50;99.90;;;;;;2112117;28;20157;-73
2022/01/12 02:11:09;;;;;;;41.72;21.20;;;-0.50;99.90;;;;;;2106359;28;20086;-70
2022/01/12 02:12:12;;;;;;;44.45;21.80;;;-0.50;99.90;;;;;;2113984;28;20032;-70
2022/01/12 02:13:13;;;;;;;45.17;22.17;;;-0.50;99.90;;;;;;2099369;28;20035;-70
2022/01/12 02:14:14;;;;;;;42.70;20.95;;;-0.50;99.90;;;;;;2099699;28;20023;-70
2022/01/12 02:15:19;;;;;;;43.53;22.33;;;-0.50;99.90;;;;;;2108170;28;20031;-70
2022/01/12 02:16:27;;;;;;;42.55;22.30;;;-0.50;99.90;;;;;;2108158;28;20028;-72
2022/01/12 02:17:38;;;;;;;41.75;21.42;;;-0.50;99.90;;;;;;2114805;28;20490;-73
2022/01/12 02:19:05;;;;;;;42.85;21.48;;;-0.50;99.90;;;;;;2110836;28;20047;-72
2022/01/12 02:35:56;;;;;;;42.30;20.92;;;-0.90;99.90;;;;;;2113821;28;20071;-72
2022/01/12 02:37:13;;;;;;;42.20;20.80;;;-0.90;99.90;;;;;;2109213;28;20099;-72
2022/01/12 02:39:56;;;;;;;41.15;20.73;;;-0.90;99.90;;;;;;2111819;28;20351;-73
2022/01/12 02:40:57;;;;;;;42.92;21.48;;;-0.90;99.90;;;;;;2108800;28;20081;-73
2022/01/12 02:41:58;;;;;;;40.72;20.70;;;-1.00;99.90;;;;;;2114011;28;20441;-74
2022/01/12 02:50:45;;;;;;;40.00;19.90;;;-0.90;99.90;;;;;;2112675;28;20098;-73
2022/01/12 02:54:33;;;;;;;38.78;19.45;;;-0.80;99.90;;;;;;2113107;28;20028;-73
2022/01/12 02:55:34;;;;;;;39.50;20.25;;;-0.80;99.90;;;;;;2111699;28;20047;-73
2022/01/12 02:56:36;;;;;;;39.13;20.13;;;-0.80;99.90;;;;;;2112055;28;20074;-73
2022/01/12 02:57:37;;;;;;;40.92;20.38;;;-0.70;99.90;;;;;;2119955;27;20019;-73
2022/01/12 02:58:42;;;;;;;39.22;20.45;;;-0.70;99.90;;;;;;2111276;28;20044;-74
2022/01/12 03:01:36;;;;;;;38.40;20.08;;;-0.70;99.90;;;;;;2113540;28;20068;-72
2022/01/12 03:02:39;;;;;;;39.88;20.23;;;-0.60;99.90;;;;;;2115233;28;20042;-72
2022/01/12 03:03:43;;;;;;;40.38;20.30;;;-0.60;99.90;;;;;;2115214;28;20035;-73
2022/01/12 03:04:55;;;;;;;37.63;19.67;;;-0.60;99.90;;;;;;2103085;28;20024;-73
2022/01/12 03:05:59;;;;;;;42.17;20.83;;;-0.60;99.90;;;;;;2099294;28;20028;-73
2022/01/12 03:07:06;;;;;;;39.90;19.98;;;-0.60;99.90;;;;;;2100687;28;20036;-73
2022/01/12 03:08:14;;;;;;;39.97;20.02;;;-0.60;99.90;;;;;;2107719;28;20024;-73
2022/01/12 03:09:16;;;;;;;38.60;19.90;;;-0.60;99.90;;;;;;2098899;28;20116;-73
2022/01/12 03:10:17;;;;;;;36.28;19.17;;;-0.60;99.90;;;;;;2107741;28;20032;-73
2022/01/12 03:11:21;;;;;;;38.25;19.77;;;-0.60;99.90;;;;;;2124679;27;20079;-73
2022/01/12 03:12:25;;;;;;;39.78;19.35;;;-0.60;99.90;;;;;;2115770;28;20049;-73
2022/01/12 03:13:25;;;;;;;37.17;19.38;;;-0.60;99.90;;;;;;2111256;28;20812;-73
2022/01/12 03:14:26;;;;;;;39.55;19.95;;;-0.60;99.90;;;;;;2114473;28;20028;-74
2022/01/12 03:15:28;;;;;;;38.47;19.85;;;-0.70;99.90;;;;;;2119250;27;20119;-73
2022/01/12 03:16:30;;;;;;;37.78;19.73;;;-0.70;99.90;;;;;;2116439;28;20023;-73
2022/01/12 03:17:35;;;;;;;36.60;19.35;;;-0.70;99.90;;;;;;2116699;28;20035;-73
2022/01/12 03:18:35;;;;;;;39.15;20.58;;;-0.70;99.90;;;;;;2113920;28;20047;-73
2022/01/12 03:19:36;;;;;;;37.25;19.63;;;-0.70;99.90;;;;;;2113776;28;20507;-73
2022/01/12 03:20:38;;;;;;;40.72;20.23;;;-0.70;99.90;;;;;;2112815;28;20107;-73
2022/01/12 03:21:39;;;;;;;36.92;19.15;;;-0.70;99.90;;;;;;2098260;28;20025;-73
2022/01/12 03:22:40;;;;;;;37.75;19.58;;;-0.70;99.90;;;;;;2104176;28;20032;-73
2022/01/12 03:23:41;;;;;;;34.40;18.60;;;-0.70;99.90;;;;;;2115596;28;20028;-73
2022/01/12 03:24:42;;;;;;;36.65;19.63;;;-0.70;99.90;;;;;;2111498;28;20024;-73
2022/01/12 03:25:44;;;;;;;34.72;17.77;;;-0.70;99.90;;;;;;2121253;27;20038;-73
2022/01/12 03:26:45;;;;;;;36.78;18.52;;;-0.70;99.90;;;;;;2110739;28;20027;-73
2022/01/12 03:27:50;;;;;;;35.92;18.45;;;-0.60;99.90;;;;;;2105287;28;20020;-73
2022/01/12 03:28:55;;;;;;;33.88;18.40;;;-0.70;99.90;;;;;;2109767;28;20024;-73
2022/01/12 03:29:57;;;;;;;36.38;18.63;;;-0.60;99.90;;;;;;2114644;28;20020;-72
2022/01/12 03:31:19;;;;;;;33.95;17.70;;;-0.60;99.90;;;;;;2099923;28;20021;-73
2022/01/12 03:32:27;;;;;;;35.55;18.42;;;-0.60;99.90;;;;;;2102426;28;20423;-73
2022/01/12 03:33:39;;;;;;;36.05;18.33;;;-0.60;99.90;;;;;;2102102;28;20449;-73
2022/01/12 03:34:42;;;;;;;33.90;18.00;;;-0.60;99.90;;;;;;2106801;28;20368;-73
2022/01/12 03:36:01;;;;;;;35.50;18.30;;;-0.60;99.90;;;;;;2100537;28;20116;-73
2022/01/12 03:37:39;;;;;;;35.17;18.33;;;-0.60;99.90;;;;;;2108849;28;20500;-72
2022/01/12 03:38:38;;;;;;;33.50;17.40;;;-0.70;99.90;;;;;;2106744;28;20027;-72
2022/01/12 03:39:39;;;;;;;35.08;17.98;;;-0.70;99.90;;;;;;2110715;28;20023;-72
2022/01/12 03:40:40;;;;;;;33.03;17.30;;;-0.70;99.90;;;;;;2101702;28;20413;-71
2022/01/12 03:41:43;;;;;;;34.17;17.73;;;-0.70;99.90;;;;;;2097152;28;20060;-71
2022/01/12 03:42:45;;;;;;;36.17;18.25;;;-0.70;99.90;;;;;;2097660;28;20024;-71
2022/01/12 03:43:47;;;;;;;33.45;17.75;;;-0.70;99.90;;;;;;2097581;28;20034;-71
2022/01/12 03:44:47;;;;;;;34.05;17.58;;;-0.80;99.90;;;;;;2109522;28;20130;-72
2022/01/12 03:45:49;;;;;;;33.08;18.13;;;-0.80;99.90;;;;;;2112833;28;20493;-72
2022/01/12 03:46:51;;;;;;;34.55;17.83;;;-0.70;99.90;;;;;;2101212;28;20028;-72
2022/01/12 03:47:53;;;;;;;33.20;17.77;;;-0.70;99.90;;;;;;2105237;28;20028;-72
2022/01/12 03:48:54;;;;;;;32.38;17.15;;;-0.70;99.90;;;;;;2105664;28;20031;-72
2022/01/12 03:49:55;;;;;;;32.28;17.23;;;-0.70;99.90;;;;;;2114522;28;20063;-72
2022/01/12 03:50:56;;;;;;;33.17;17.55;;;-0.70;99.90;;;;;;2109192;28;20023;-72
2022/01/12 03:51:57;;;;;;;32.55;17.33;;;-0.70;99.90;;;;;;2113260;28;20028;-72
2022/01/12 03:52:58;;;;;;;32.85;17.65;;;-0.70;99.90;;;;;;2108270;28;20028;-72
2022/01/12 03:54:00;;;;;;;34.33;18.10;;;-0.70;99.90;;;;;;2114572;28;20029;-72
2022/01/12 03:55:04;;;;;;;34.13;18.58;;;-0.70;99.90;;;;;;2114065;28;20080;-72
2022/01/12 03:56:05;;;;;;;36.35;18.75;;;-0.70;99.90;;;;;;2097924;28;20025;-70
2022/01/12 03:57:07;;;;;;;36.53;18.05;;;-0.80;99.90;;;;;;2107182;28;20531;-71
2022/01/12 03:58:10;;;;;;;36.25;19.08;;;-0.70;99.90;;;;;;2114315;28;20031;-71
2022/01/12 03:59:11;;;;;;;35.92;18.63;;;-0.80;99.90;;;;;;2106530;28;20031;-71
2022/01/12 04:00:13;;;;;;;32.72;17.77;;;-0.80;99.90;;;;;;2113740;28;20024;-70
2022/01/12 04:01:14;;;;;;;34.47;17.83;;;-0.80;99.90;;;;;;2107179;28;20032;-71
2022/01/12 04:02:15;;;;;;;34.90;18.02;;;-0.80;99.90;;;;;;2113492;28;20038;-70
2022/01/12 04:03:17;;;;;;;35.80;19.00;;;-0.80;99.90;;;;;;2107189;28;20035;-70
2022/01/12 04:04:24;;;;;;;35.67;18.75;;;-0.80;99.90;;;;;;2104625;28;20024;-70
2022/01/12 04:09:17;;;;;;;37.42;18.98;;;-0.80;99.90;;;;;;2106829;28;20411;-71
2022/01/12 04:10:19;;;;;;;38.05;20.13;;;-0.80;99.90;;;;;;2112701;28;20390;-70
2022/01/12 04:11:23;;;;;;;42.08;20.42;;;-0.80;99.90;;;;;;2099321;28;20041;-70
2022/01/12 04:12:26;;;;;;;40.13;19.98;;;-0.80;99.90;;;;;;2104492;28;20047;-70
2022/01/12 04:13:29;;;;;;;38.88;20.35;;;-0.80;99.90;;;;;;2108488;28;20114;-71
2022/01/12 04:14:30;;;;;;;40.72;20.83;;;-0.80;99.90;;;;;;2103363;28;20020;-71
2022/01/12 04:15:31;;;;;;;40.50;20.60;;;-0.80;99.90;;;;;;2109312;28;20033;-71
2022/01/12 04:16:33;;;;;;;37.50;19.10;;;-0.80;99.90;;;;;;2111352;28;20023;-71
2022/01/12 04:17:33;;;;;;;37.00;19.45;;;-0.80;99.90;;;;;;2110295;28;20044;-72
2022/01/12 04:18:35;;;;;;;41.63;20.55;;;-0.80;99.90;;;;;;2110516;28;20028;-71
2022/01/12 04:19:37;;;;;;;41.15;20.65;;;-0.80;99.90;;;;;;2101657;28;20020;-71
2022/01/12 04:20:46;;;;;;;38.30;20.42;;;-0.70;99.90;;;;;;2102293;28;20793;-72
2022/01/12 04:21:49;;;;;;;38.63;19.80;;;-0.80;99.90;;;;;;2111062;28;20451;-72
2022/01/12 04:24:09;;;;;;;38.95;19.90;;;-0.70;99.90;;;;;;2106635;28;20111;-72
2022/01/12 04:25:11;;;;;;;37.50;19.40;;;-0.70;99.90;;;;;;2106610;28;20020;-72
2022/01/12 04:26:13;;;;;;;43.88;21.05;;;-0.70;99.90;;;;;;2113730;28;20456;-72
2022/01/12 04:27:14;;;;;;;39.60;20.15;;;-0.70;99.90;;;;;;2107050;28;20048;-72
2022/01/12 04:28:17;;;;;;;40.90;20.58;;;-0.70;99.90;;;;;;2105127;28;20487;-72
2022/01/12 04:29:18;;;;;;;43.65;20.98;;;-0.70;99.90;;;;;;2098652;28;20139;-72
2022/01/12 04:30:18;;;;;;;37.88;19.83;;;-0.60;99.90;;;;;;2096134;28;20028;-72
2022/01/12 04:31:20;;;;;;;41.97;21.67;;;-0.60;99.90;;;;;;2099256;28;20446;-73
2022/01/12 04:32:22;;;;;;;42.17;22.05;;;-0.60;99.90;;;;;;2121868;27;20030;-73
2022/01/12 04:33:24;;;;;;;40.83;21.65;;;-0.70;99.90;;;;;;2114131;28;20551;-73
2022/01/12 04:34:25;;;;;;;39.63;21.17;;;-0.70;99.90;;;;;;2112133;28;20011;-73
2022/01/12 04:35:31;;;;;;;42.28;21.45;;;-0.70;99.90;;;;;;2105592;28;20133;-73
2022/01/12 04:36:32;;;;;;;42.83;21.35;;;-0.60;99.90;;;;;;2105738;28;20079;-72
2022/01/12 04:37:34;;;;;;;39.38;20.80;;;-0.60;99.90;;;;;;2118072;28;20079;-72
2022/01/12 04:38:36;;;;;;;39.50;21.42;;;-0.60;99.90;;;;;;2109923;28;20066;-72
2022/01/12 04:39:38;;;;;;;44.63;22.65;;;-0.60;99.90;;;;;;2105303;28;20024;-72
2022/01/12 04:40:39;;;;;;;43.13;22.67;;;-0.60;99.90;;;;;;2104769;28;20101;-72
2022/01/12 04:41:39;;;;;;;42.10;21.63;;;-0.50;99.90;;;;;;2104558;28;20016;-72
2022/01/12 04:42:40;;;;;;;44.35;22.23;;;-0.50;99.90;;;;;;2104755;28;20100;-73
2022/01/12 04:43:43;;;;;;;43.28;22.35;;;-0.50;99.90;;;;;;2104890;28;20525;-72
2022/01/12 04:44:47;;;;;;;44.85;22.05;;;-0.50;99.90;;;;;;2109456;28;20035;-72
2022/01/12 04:47:04;;;;;;;45.53;22.60;;;-0.50;99.90;;;;;;2109884;28;20058;-73
2022/01/12 04:49:47;;;;;;;46.90;23.10;;;-0.50;99.90;;;;;;2108202;28;20032;-72
2022/01/12 04:50:48;;;;;;;46.00;22.52;;;-0.50;99.90;;;;;;2110271;28;20058;-72
2022/01/12 04:51:50;;;;;;;48.17;23.73;;;-0.50;99.90;;;;;;2112922;28;20432;-72
2022/01/12 04:52:52;;;;;;;48.45;24.27;;;-0.50;99.90;;;;;;2109712;28;20094;-71
2022/01/12 04:53:53;;;;;;;49.55;23.60;;;-0.50;99.90;;;;;;2105565;28;20024;-72
2022/01/12 04:54:55;;;;;;;46.83;23.60;;;-0.50;99.90;;;;;;2100937;28;20383;-73
2022/01/12 04:55:59;;;;;;;49.13;24.55;;;-0.50;99.90;;;;;;2106458;28;20053;-72
2022/01/12 04:57:01;;;;;;;45.25;23.00;;;-0.50;99.90;;;;;;2114688;28;20111;-73
2022/01/12 04:58:03;;;;;;;46.50;23.13;;;-0.50;99.90;;;;;;2115111;28;20027;-73
2022/01/12 04:59:04;;;;;;;49.90;24.33;;;-0.50;99.90;;;;;;2107992;28;20388;-72
2022/01/12 05:00:15;;;;;;;49.45;25.08;;;-0.40;99.90;;;;;;2115043;28;20506;-73
2022/01/12 05:01:24;;;;;;;48.42;24.58;;;-0.50;99.90;;;;;;2100140;28;20032;-73
2022/01/12 05:07:59;;;;;;;48.85;23.75;;;-0.50;99.90;;;;;;2115986;28;20020;-73
2022/01/12 05:09:14;;;;;;;50.55;24.30;;;-0.50;99.90;;;;;;2106129;28;20026;-72
2022/01/12 05:13:49;;;;;;;48.75;24.08;;;-0.60;99.90;;;;;;2106367;28;20266;-72
2022/01/12 05:15:03;;;;;;;47.28;23.77;;;-0.60;99.90;;;;;;2106628;28;20024;-72
2022/01/12 05:16:05;;;;;;;49.08;23.55;;;-0.60;99.90;;;;;;2100385;28;20513;-72
2022/01/12 05:17:06;;;;;;;48.10;23.13;;;-0.60;99.90;;;;;;2098735;28;20081;-73
2022/01/12 05:18:07;;;;;;;45.72;22.90;;;-0.50;99.90;;;;;;2098483;28;20025;-72
2022/01/12 05:19:08;;;;;;;55.22;26.65;;;-0.60;99.90;;;;;;2108356;28;20032;-72
2022/01/12 05:20:09;;;;;;;50.03;23.98;;;-0.50;99.90;;;;;;2115940;28;20031;-74
2022/01/12 05:21:10;;;;;;;50.50;24.85;;;-0.50;99.90;;;;;;2115263;28;20031;-73
2022/01/12 05:22:11;;;;;;;49.28;24.33;;;-0.50;99.90;;;;;;2106835;28;20032;-73
2022/01/12 05:23:13;;;;;;;49.40;24.38;;;-0.50;99.90;;;;;;2100160;28;20033;-73
2022/01/12 05:24:14;;;;;;;47.92;24.10;;;-0.50;99.90;;;;;;2115806;28;20110;-72
2022/01/12 05:25:17;;;;;;;47.92;23.75;;;-0.50;99.90;;;;;;2117064;27;20073;-73
2022/01/12 05:26:18;;;;;;;49.47;24.45;;;-0.50;99.90;;;;;;2123194;27;20558;-74
2022/01/12 05:27:19;;;;;;;50.40;24.08;;;-0.50;99.90;;;;;;2117856;27;20032;-72
2022/01/12 05:28:21;;;;;;;47.63;23.45;;;-0.50;99.90;;;;;;2114360;28;20160;-72
2022/01/12 05:29:23;;;;;;;47.17;24.65;;;-0.50;99.90;;;;;;2114276;28;20057;-72
2022/01/12 05:30:25;;;;;;;49.88;24.30;;;-0.50;99.90;;;;;;2106062;28;20036;-73
2022/01/12 05:31:27;;;;;;;48.10;24.50;;;-0.50;99.90;;;;;;2114221;27;20407;-72
2022/01/12 05:32:30;;;;;;;46.40;23.83;;;-0.50;99.90;;;;;;2105976;28;20089;-73
2022/01/12 05:33:34;;;;;;;50.83;24.58;;;-0.50;99.90;;;;;;2098713;28;20024;-73
2022/01/12 05:34:37;;;;;;;49.00;25.02;;;-0.50;99.90;;;;;;2114474;27;20468;-72
2022/01/12 05:35:38;;;;;;;48.65;25.38;;;-0.50;99.90;;;;;;2114446;28;20015;-73
2022/01/12 05:36:42;;;;;;;48.40;25.77;;;-0.50;99.90;;;;;;2106463;28;20537;-72
2022/01/12 05:37:44;;;;;;;50.70;25.80;;;-0.50;99.90;;;;;;2114417;28;20035;-73
2022/01/12 05:38:46;;;;;;;52.10;25.65;;;-0.50;99.90;;;;;;2114124;28;20028;-73
2022/01/12 05:39:47;;;;;;;49.70;25.60;;;-0.50;99.90;;;;;;2114642;28;20036;-73
2022/01/12 05:40:52;;;;;;;50.88;26.23;;;-0.50;99.90;;;;;;2115074;28;20076;-73
2022/01/12 05:41:54;;;;;;;52.50;26.00;;;-0.50;99.90;;;;;;2114279;28;20083;-73
2022/01/12 05:42:58;;;;;;;52.20;26.52;;;-0.50;99.90;;;;;;2105994;28;20024;-74
2022/01/12 05:43:59;;;;;;;54.97;26.98;;;-0.50;99.90;;;;;;2115001;27;20023;-74
2022/01/12 05:45:00;;;;;;;51.13;25.38;;;-0.50;99.90;;;;;;2114474;28;20020;-73
2022/01/12 05:46:12;;;;;;;49.83;25.17;;;-0.50;99.90;;;;;;2097613;28;20532;-74
2022/01/12 05:47:30;;;;;;;55.05;26.38;;;-0.50;99.90;;;;;;2100905;28;20113;-72
2022/01/12 05:49:51;;;;;;;53.30;26.38;;;-0.50;99.90;;;;;;2114404;28;20529;-73
2022/01/12 05:50:52;;;;;;;55.83;26.90;;;-0.50;99.90;;;;;;2109072;28;20031;-74
2022/01/12 05:51:56;;;;;;;51.83;26.00;;;-0.50;99.90;;;;;;2118087;27;20015;-74
2022/01/12 05:52:57;;;;;;;55.53;27.85;;;-0.50;99.90;;;;;;2119261;28;20086;-73
2022/01/12 05:53:58;;;;;;;54.72;28.20;;;-0.50;99.90;;;;;;2118092;28;20099;-73
2022/01/12 05:55:02;;;;;;;57.50;29.02;;;-0.50;99.90;;;;;;2119279;28;20019;-72
2022/01/12 05:56:02;;;;;;;54.22;27.90;;;-0.50;99.90;;;;;;2117105;28;20039;-75
2022/01/12 05:57:05;;;;;;;55.92;27.63;;;-0.50;99.90;;;;;;2110636;28;20020;-73
2022/01/12 05:58:05;;;;;;;55.78;27.88;;;-0.50;99.90;;;;;;2109001;28;20020;-73
2022/01/12 05:59:06;;;;;;;54.40;27.40;;;-0.50;99.90;;;;;;2105304;28;20509;-73
2022/01/12 06:00:09;;;;;;;52.58;26.55;;;-0.50;99.90;;;;;;2106095;28;20058;-72
2022/01/12 06:01:14;;;;;;;53.78;27.13;;;-0.40;99.90;;;;;;2114470;28;20506;-73
2022/01/12 06:02:15;;;;;;;55.65;28.70;;;-0.50;99.90;;;;;;2114176;28;20031;-71
2022/01/12 06:03:16;;;;;;;55.63;28.58;;;-0.50;99.90;;;;;;2105863;28;20143;-75
2022/01/12 06:04:17;;;;;;;54.55;27.58;;;-0.40;99.90;;;;;;2114358;28;20066;-73
2022/01/12 06:05:19;;;;;;;54.80;28.67;;;-0.50;99.90;;;;;;2106112;28;20066;-74
2022/01/12 06:06:20;;;;;;;49.83;25.45;;;-0.40;99.90;;;;;;2106495;28;20035;-74
2022/01/12 06:07:21;;;;;;;52.35;26.77;;;-0.40;99.90;;;;;;2114909;28;20103;-75
2022/01/12 06:08:22;;;;;;;51.30;25.40;;;-0.50;99.90;;;;;;2114305;28;20054;-74
2022/01/12 06:09:23;;;;;;;49.75;25.98;;;-0.50;99.90;;;;;;2114256;28;20032;-72
2022/01/12 06:10:24;;;;;;;53.95;26.83;;;-0.50;99.90;;;;;;2114739;28;20031;-72
2022/01/12 06:11:25;;;;;;;56.08;27.27;;;-0.50;99.90;;;;;;2114516;28;20035;-74
2022/01/12 06:12:29;;;;;;;54.75;26.67;;;-0.50;99.90;;;;;;2115214;28;20043;-74
2022/01/12 06:13:30;;;;;;;54.60;27.40;;;-0.50;99.90;;;;;;2107419;28;20043;-76
2022/01/12 06:14:30;;;;;;;52.63;27.08;;;-0.50;99.90;;;;;;2107032;28;20032;-74
2022/01/12 06:15:33;;;;;;;57.83;27.80;;;-0.50;99.90;;;;;;2107092;28;20035;-72
2022/01/12 06:16:34;;;;;;;52.30;26.42;;;-0.50;99.90;;;;;;2105745;28;20067;-73
2022/01/12 06:17:35;;;;;;;54.60;26.80;;;-0.50;99.90;;;;;;2097540;28;20028;-72
2022/01/12 06:18:36;;;;;;;55.92;27.73;;;-0.50;99.90;;;;;;2105246;28;20019;-73
2022/01/12 06:19:38;;;;;;;58.70;27.77;;;-0.50;99.90;;;;;;2105827;28;20024;-72
2022/01/12 06:20:52;;;;;;;58.75;28.23;;;-0.40;99.90;;;;;;2114379;28;20024;-73
2022/01/12 06:22:18;;;;;;;60.85;28.60;;;-0.50;99.90;;;;;;2113772;28;20054;-73
2022/01/12 06:23:19;;;;;;;61.88;30.08;;;-0.50;99.90;;;;;;2114035;28;20514;-73
2022/01/12 06:24:31;;;;;;;58.30;29.02;;;-0.50;99.90;;;;;;2114145;28;20064;-74
2022/01/12 06:25:32;;;;;;;59.03;29.13;;;-0.50;99.90;;;;;;2114448;28;20141;-72
2022/01/12 06:26:33;;;;;;;62.67;29.88;;;-0.50;99.90;;;;;;2114289;28;20674;-73
2022/01/12 06:27:34;;;;;;;61.20;30.33;;;-0.50;99.90;;;;;;2106084;28;20107;-74
2022/01/12 06:28:39;;;;;;;62.00;30.13;;;-0.60;99.90;;;;;;2114114;28;20478;-76
2022/01/12 06:32:16;;;;;;;57.83;27.75;;;-0.60;99.90;;;;;;2071669;28;20239;-75
2022/01/12 06:33:17;;;;;;;57.28;28.00;;;-0.60;99.90;;;;;;2101161;28;20089;-75
2022/01/12 06:34:18;;;;;;;59.63;29.88;;;-0.50;99.90;;;;;;2114046;28;20068;-74
2022/01/12 06:35:18;;;;;;;87.90;45.55;;;-0.60;99.90;;;;;;2105543;28;20411;-74
2022/01/12 06:36:22;;;;;;;88.28;46.10;;;-0.60;99.90;;;;;;2105706;28;20107;-74